Star Epsilon — V7NZ7 — position and weather

sailwx.info

Track history (hours):
 
Tides and Currents Weather Stations Pressure Air Temp Water Temp Dewpoint Dewpoint Depression Visibility Wind Speed Wind Dir Waves Ship Positions

Star Epsilon

Last reported at 2015-Aug-06 00:33 UTC. Time now 2015-Sep-04 21:08 UTC.
Position N 02°59' E 100°51'.
Warning: this ship's position is 29 days out of date.

Length 189 m; draft 10.6 m.

Type: Ship. MMSI: 538003043.

Date/timePositionNaut miles runAvg speedWind from/ knotsBaromVisibWave heightAir tempDewpointWater temp
2015-Aug-06 00:33N 02°59' E 100°51'2211.3
2015-Aug-05 22:33N 02°46' E 101°09'2713.5
2015-Aug-05 20:33N 02°32' E 101°33'2713.6
2015-Aug-05 18:33N 02°15' E 101°54'13011.8
2015-Aug-05 07:31N 01°09' E 103°46'1212.4
2015-Aug-05 06:33N 01°14' E 103°56'4 3.3
2015-Aug-05 05:14N 01°17' E 103°60'0 0.1
2015-Aug-05 04:32N 01°17' E 103°60'0 0.1
2015-Aug-05 02:32N 01°17' E 103°60'0 0.0
2015-Aug-04 20:17N 01°17' E 103°60'0 0.4
2015-Aug-04 19:33N 01°17' E 103°60'3 3.1
2015-Aug-04 18:33N 01°17' E 104°03'8 7.6
2015-Aug-04 17:30N 01°17' E 104°10'  
2015-Jul-30 02:31N 23°50' E 118°19'4611.5
2015-Jul-29 22:32N 24°21' E 118°56'5610.9
2015-Jul-29 17:22N 24°58' E 119°43'910.9
2015-Jul-29 16:33N 25°04' E 119°50'34911.3
2015-Jul-28 09:31N 30°08' E 123°04'1212.1
2015-Jul-28 08:33N 30°18' E 123°10'5312.5
2015-Jul-28 04:21N 31°07' E 123°32'3412.0
2015-Jul-28 01:30N 31°41' E 123°31'1111.2
2015-Jul-28 00:33N 31°52' E 123°31'2511.2
2015-Jul-27 22:20N 32°17' E 123°28'911.5
2015-Jul-27 21:33N 32°26' E 123°27'1211.8
2015-Jul-27 20:33N 32°38' E 123°26'1212.1
2015-Jul-27 19:33N 32°49' E 123°23'1412.3
2015-Jul-27 18:26N 33°03' E 123°19'1112.6
2015-Jul-27 17:33N 33°14' E 123°18'10 9.9
2015-Jul-27 16:33N 33°24' E 123°16'  
Track history (hours):
 
Tides and Currents Weather Stations Pressure Air Temp Water Temp Dewpoint Dewpoint Depression Visibility Wind Speed Wind Dir Waves Ship Positions

Star Epsilon

Last reported at 2015-Aug-06 00:33 UTC. Time now 2015-Sep-04 21:08 UTC.
Position N 02°59' E 100°51'.
Warning: this ship's position is 29 days out of date.

Length 189 m; draft 10.6 m.

Type: Ship. MMSI: 538003043.

Date/timePositionNaut miles runAvg speedWind from/ knotsBaromVisibWave heightAir tempDewpointWater temp
2015-Aug-06 00:33N 02°59' E 100°51'2211.3
2015-Aug-05 22:33N 02°46' E 101°09'2713.5
2015-Aug-05 20:33N 02°32' E 101°33'2713.6
2015-Aug-05 18:33N 02°15' E 101°54'13011.8
2015-Aug-05 07:31N 01°09' E 103°46'1212.4
2015-Aug-05 06:33N 01°14' E 103°56'4 3.3
2015-Aug-05 05:14N 01°17' E 103°60'0 0.1
2015-Aug-05 04:32N 01°17' E 103°60'0 0.1
2015-Aug-05 02:32N 01°17' E 103°60'0 0.0
2015-Aug-04 20:17N 01°17' E 103°60'0 0.4
2015-Aug-04 19:33N 01°17' E 103°60'3 3.1
2015-Aug-04 18:33N 01°17' E 104°03'8 7.6
2015-Aug-04 17:30N 01°17' E 104°10'  
2015-Jul-30 02:31N 23°50' E 118°19'4611.5
2015-Jul-29 22:32N 24°21' E 118°56'5610.9
2015-Jul-29 17:22N 24°58' E 119°43'910.9
2015-Jul-29 16:33N 25°04' E 119°50'34911.3
2015-Jul-28 09:31N 30°08' E 123°04'1212.1
2015-Jul-28 08:33N 30°18' E 123°10'5312.5
2015-Jul-28 04:21N 31°07' E 123°32'3412.0
2015-Jul-28 01:30N 31°41' E 123°31'1111.2
2015-Jul-28 00:33N 31°52' E 123°31'2511.2
2015-Jul-27 22:20N 32°17' E 123°28'911.5
2015-Jul-27 21:33N 32°26' E 123°27'1211.8
2015-Jul-27 20:33N 32°38' E 123°26'1212.1
2015-Jul-27 19:33N 32°49' E 123°23'1412.3
2015-Jul-27 18:26N 33°03' E 123°19'1112.6
2015-Jul-27 17:33N 33°14' E 123°18'10 9.9
2015-Jul-27 16:33N 33°24' E 123°16'  

Dump ship's entire track history